Terminal Aerodrome Forecast
Issued by NWS Mt. Holly, NJ

Home | Current Version | Previous Version | Text Only | Print | Product List | Glossary On
Versions: 1 2 3 4 5 6 7 8 9 10 11 12 13 14 15 16 17 18
000
FTUS41 KPHI 301100
TAFTTN
TAF
KTTN 301137Z 3012/0112 00000KT P6SM BKN150
      TEMPO 3012/3013 6SM BR FEW008
     FM301300 15005KT P6SM SCT050
      TEMPO 3017/3020 BKN050
     FM010000 09007KT P6SM BKN150
     FM010400 07008KT 5SM BR OVC009
     FM010900 06006KT 3SM BR OVC005=

USA.gov is the U.S. government's official web portal to all federal, state and local government web resources and services.